Time;durP1;ratioP1;P1;durP2;ratioP2;P2;SDS_P1;SDS_P2;PMS_P1;PMS_P2;Temp;Humidity;BMP_temperature;BMP_pressure;BME280_temperature;BME280_humidity;BME280_pressure;Samples;Min_cycle;Max_cycle;Signal;HPM_P1;HPM_P2
2021/01/25 00:00:21;;;;;;;;;;;;;;;-4.41;91.60;91209.06;1062964;56;20150;-83
2021/01/25 00:01:22;;;;;;;;;;;;;;;-4.36;92.08;91206.81;1063058;56;20180;-83
2021/01/25 00:02:22;;;;;;;;;;;;;;;-4.37;92.30;91209.81;1063337;56;20150;-81
2021/01/25 00:03:22;;;;;;;;;;;;;;;-4.33;92.33;91211.31;1058622;56;20182;-81
2021/01/25 00:04:23;;;;;;;;;;;;;;;-4.34;92.57;91209.09;1058825;56;20146;-80
2021/01/25 00:05:23;;;;;;;;;;;;;;;-4.37;92.79;91204.59;1058774;56;20166;-81
2021/01/25 00:06:23;;;;;;;;;;;;;;;-4.41;92.46;91201.22;1058830;56;20610;-80
2021/01/25 00:07:24;;;;;;;;;;;;;;;-4.38;93.42;91203.13;1058891;56;20166;-81
2021/01/25 00:08:24;;;;;;;;;;;;;;;-4.38;91.70;91203.84;1056726;56;20253;-82
2021/01/25 00:09:24;;;;;;;;;;;;;;;-4.37;92.13;91204.59;1056515;56;20170;-81
2021/01/25 00:10:25;;;;;;;;;;;;;;;-4.27;92.65;91198.66;1058269;56;20181;-82
2021/01/25 00:11:25;;;;;;;;;;;;;;;-4.28;92.38;91204.25;1058742;56;20170;-81
2021/01/25 00:12:26;;;;;;;;;;;;;;;-4.39;92.43;91201.59;1058806;56;20765;-81
2021/01/25 00:13:26;;;;;;;;;;;;;;;-4.38;92.65;91198.66;1060786;56;20158;-82
2021/01/25 00:14:26;;;;;;;;;;;;;;;-4.37;93.15;91199.38;1056049;56;20666;-84
2021/01/25 00:15:27;;;;;;;;;;;;;;;-4.27;93.07;91200.50;1056866;56;21449;-83
2021/01/25 00:16:27;;;;;;;;;;;;;;;-4.25;92.43;91199.03;1058520;56;20186;-82
2021/01/25 00:17:27;;;;;;;;;;;;;;;-4.30;92.31;91191.59;1058852;56;20162;-82
2021/01/25 00:18:28;;;;;;;;;;;;;;;-4.24;92.58;91186.75;1056858;56;20166;-81
2021/01/25 00:19:28;;;;;;;;;;;;;;;-4.28;92.68;91188.59;1056838;56;20165;-82
2021/01/25 00:20:28;;;;;;;;;;;;;;;-4.24;92.03;91184.13;1059868;56;20582;-81
2021/01/25 00:21:28;;;;;;;;;;;;;;;-4.30;92.05;91186.38;1062809;55;20578;-81
2021/01/25 00:22:29;;;;;;;;;;;;;;;-4.25;92.33;91188.59;1060992;56;20169;-83
2021/01/25 00:23:29;;;;;;;;;;;;;;;-4.17;92.06;91184.13;1057875;56;20165;-82
2021/01/25 00:24:29;;;;;;;;;;;;;;;-4.19;92.53;91189.72;1056750;56;20155;-81
2021/01/25 00:25:30;;;;;;;;;;;;;;;-4.19;92.69;91181.91;1056883;56;20186;-82
2021/01/25 00:26:30;;;;;;;;;;;;;;;-4.16;93.23;91178.56;1060519;56;20243;-84
2021/01/25 00:27:30;;;;;;;;;;;;;;;-4.15;92.94;91187.12;1060033;56;20197;-81
2021/01/25 00:28:30;;;;;;;;;;;;;;;-4.11;93.91;91182.66;1058959;56;20177;-82
2021/01/25 00:29:31;;;;;;;;;;;;;;;-4.07;93.38;91183.41;1058885;56;20254;-82
2021/01/25 00:30:31;;;;;;;;;;;;;;;-4.02;92.98;91187.50;1061315;56;20627;-84
2021/01/25 00:31:32;;;;;;;;;;;;;;;-4.04;93.04;91180.03;1059005;56;20159;-81
2021/01/25 00:32:32;;;;;;;;;;;;;;;-4.02;92.75;91188.25;1054802;56;20187;-84
2021/01/25 00:33:32;;;;;;;;;;;;;;;-4.07;93.42;91178.94;1059009;56;20166;-81
2021/01/25 00:34:33;;;;;;;;;;;;;;;-4.01;92.71;91170.72;1061317;56;20154;-82
2021/01/25 00:35:33;;;;;;;;;;;;;;;-3.96;93.19;91175.56;1063653;55;20154;-81
2021/01/25 00:36:33;;;;;;;;;;;;;;;-3.97;92.58;91177.44;1061153;56;20142;-82
2021/01/25 00:37:34;;;;;;;;;;;;;;;-3.94;93.18;91170.75;1059030;56;20646;-83
2021/01/25 00:38:34;;;;;;;;;;;;;;;-3.92;92.56;91174.47;1056853;56;20178;-82
2021/01/25 00:39:34;;;;;;;;;;;;;;;-3.95;93.03;91179.66;1057003;56;20159;-81
2021/01/25 00:40:35;;;;;;;;;;;;;;;-3.90;92.86;91171.50;1058947;56;20603;-81
2021/01/25 00:41:35;;;;;;;;;;;;;;;-3.89;92.64;91176.34;1061173;56;20218;-82
2021/01/25 00:42:35;;;;;;;;;;;;;;;-3.80;93.39;91173.34;1061076;56;20264;-83
2021/01/25 00:43:35;;;;;;;;;;;;;;;-3.90;93.11;91168.88;1058955;56;20296;-85
2021/01/25 00:44:36;;;;;;;;;;;;;;;-3.84;93.68;91164.78;1061240;56;20201;-81
2021/01/25 00:45:36;;;;;;;;;;;;;;;-3.78;93.71;91170.34;1058435;56;20252;-81
2021/01/25 00:46:36;;;;;;;;;;;;;;;-3.84;93.16;91172.59;1056999;56;20174;-81
2021/01/25 00:47:37;;;;;;;;;;;;;;;-3.83;93.13;91171.47;1059036;56;20671;-82
2021/01/25 00:48:38;;;;;;;;;;;;;;;-3.89;93.41;91172.97;1059894;56;20234;-81
2021/01/25 00:49:38;;;;;;;;;;;;;;;-3.83;93.43;91169.59;1058691;56;20166;-84
2021/01/25 00:50:38;;;;;;;;;;;;;;;-3.74;93.08;91166.63;1054045;56;20190;-82
2021/01/25 00:51:38;;;;;;;;;;;;;;;-3.71;92.15;91162.53;1056863;56;20632;-83
2021/01/25 00:52:39;;;;;;;;;;;;;;;-3.80;92.40;91170.75;1058477;56;20162;-83
2021/01/25 00:53:39;;;;;;;;;;;;;;;-3.77;92.79;91164.78;1058911;56;20162;-82
2021/01/25 00:54:39;;;;;;;;;;;;;;;-3.81;92.79;91169.25;1058903;56;20177;-83
2021/01/25 00:55:40;;;;;;;;;;;;;;;-3.83;93.17;91161.03;1058851;56;20151;-82
2021/01/25 00:56:40;;;;;;;;;;;;;;;-3.81;93.02;91162.16;1054877;56;20182;-82
2021/01/25 00:57:41;;;;;;;;;;;;;;;-3.81;93.64;91162.16;1059011;56;20155;-82
2021/01/25 00:58:42;;;;;;;;;;;;;;;-3.82;94.01;91159.91;1059023;56;20757;-83
2021/01/25 00:59:42;;;;;;;;;;;;;;;-3.77;94.34;91156.22;1059004;56;21090;-83
2021/01/25 01:00:42;;;;;;;;;;;;;;;-3.74;93.00;91153.56;1058408;56;20568;-82
2021/01/25 01:01:43;;;;;;;;;;;;;;;-3.73;93.06;91155.09;1059008;56;20150;-81
2021/01/25 01:02:43;;;;;;;;;;;;;;;-3.76;92.88;91155.09;1056801;56;20261;-82
2021/01/25 01:03:43;;;;;;;;;;;;;;;-3.76;92.88;91161.03;1056872;56;20182;-83
2021/01/25 01:04:44;;;;;;;;;;;;;;;-3.78;92.92;91158.03;1056928;56;20147;-81
2021/01/25 01:05:44;;;;;;;;;;;;;;;-3.67;93.27;91158.06;1054683;56;20191;-81
2021/01/25 01:06:44;;;;;;;;;;;;;;;-3.68;93.14;91156.56;1059014;56;20222;-81
2021/01/25 01:07:44;;;;;;;;;;;;;;;-3.74;93.53;91153.56;1061126;56;20158;-83
2021/01/25 01:08:45;;;;;;;;;;;;;;;-3.67;93.49;91160.66;1059043;56;20640;-83
2021/01/25 01:09:45;;;;;;;;;;;;;;;-3.75;92.97;91152.09;1061141;56;20189;-83
2021/01/25 01:10:46;;;;;;;;;;;;;;;-3.73;93.33;91156.91;1058988;56;20305;-81
2021/01/25 01:11:46;;;;;;;;;;;;;;;-3.68;93.26;91152.09;1059262;56;20285;-83
2021/01/25 01:12:46;;;;;;;;;;;;;;;-3.63;93.11;91156.19;1059112;56;20175;-82
2021/01/25 01:13:47;;;;;;;;;;;;;;;-3.62;94.10;91163.62;1056970;56;20629;-83
2021/01/25 01:14:47;;;;;;;;;;;;;;;-3.64;93.62;91155.44;1056848;56;20181;-83
2021/01/25 01:15:47;;;;;;;;;;;;;;;-3.68;93.52;91161.78;1059171;56;20253;-83
2021/01/25 01:16:47;;;;;;;;;;;;;;;-3.70;93.93;91162.16;1059017;56;20154;-82
2021/01/25 01:17:48;;;;;;;;;;;;;;;-3.77;93.93;91151.72;1054634;56;20163;-82
2021/01/25 01:18:48;;;;;;;;;;;;;;;-3.72;93.91;91156.56;1056753;56;20150;-84
2021/01/25 01:19:49;;;;;;;;;;;;;;;-3.67;94.05;91153.56;1056671;56;20155;-81
2021/01/25 01:20:49;;;;;;;;;;;;;;;-3.75;93.99;91156.56;1054854;56;20182;-83
2021/01/25 01:21:49;;;;;;;;;;;;;;;-3.64;94.43;91155.44;1058757;56;20162;-83
2021/01/25 01:22:50;;;;;;;;;;;;;;;-3.69;94.96;91158.41;1061175;56;20244;-82
2021/01/25 01:23:50;;;;;;;;;;;;;;;-3.67;94.68;91158.06;1057882;56;20252;-81
2021/01/25 01:24:50;;;;;;;;;;;;;;;-3.66;94.80;91154.31;1061125;56;20189;-82
2021/01/25 01:25:51;;;;;;;;;;;;;;;-3.72;94.62;91161.78;1060917;56;20185;-82
2021/01/25 01:26:51;;;;;;;;;;;;;;;-3.75;94.40;91157.31;1061036;56;20177;-81
2021/01/25 01:27:51;;;;;;;;;;;;;;;-3.75;94.86;91152.09;1060968;56;20154;-79
2021/01/25 01:28:52;;;;;;;;;;;;;;;-3.70;94.54;91151.69;1058460;56;20632;-82
2021/01/25 01:29:52;;;;;;;;;;;;;;;-3.69;94.45;91157.66;1054597;56;20155;-82
2021/01/25 01:30:52;;;;;;;;;;;;;;;-3.72;95.16;91163.66;1056738;56;20573;-81
2021/01/25 01:31:53;;;;;;;;;;;;;;;-3.70;94.47;91156.19;1058883;56;20648;-81
2021/01/25 01:32:53;;;;;;;;;;;;;;;-3.72;94.77;91156.56;1061057;56;20172;-82
2021/01/25 01:33:53;;;;;;;;;;;;;;;-3.66;94.43;91155.06;1058730;56;20542;-81
2021/01/25 01:34:54;;;;;;;;;;;;;;;-3.69;94.84;91160.28;1054624;56;20190;-83
2021/01/25 01:35:54;;;;;;;;;;;;;;;-3.56;94.15;91156.94;1054706;56;20171;-82
2021/01/25 01:36:54;;;;;;;;;;;;;;;-3.65;94.07;91155.81;1056740;56;20557;-84
2021/01/25 01:37:55;;;;;;;;;;;;;;;-3.70;95.17;91156.19;1058788;56;20163;-81
2021/01/25 01:38:55;;;;;;;;;;;;;;;-3.74;94.77;91158.78;1058943;56;20155;-81
2021/01/25 01:39:56;;;;;;;;;;;;;;;-3.74;95.17;91156.19;1058855;56;20177;-83
2021/01/25 01:40:57;;;;;;;;;;;;;;;-3.65;96.03;91158.41;1060882;56;20162;-84
2021/01/25 01:41:57;;;;;;;;;;;;;;;-3.67;94.78;91158.78;1058924;56;20180;-81
2021/01/25 01:42:58;;;;;;;;;;;;;;;-3.62;95.32;91158.41;1056921;56;20165;-83
2021/01/25 01:43:58;;;;;;;;;;;;;;;-3.70;94.48;91156.94;1061098;56;20197;-83
2021/01/25 01:45:01;;;;;;;;;;;;;;;-3.72;94.99;91156.56;1056876;56;20639;-81
2021/01/25 01:46:02;;;;;;;;;;;;;;;-3.66;95.11;91159.53;1054691;56;20275;-80
2021/01/25 01:47:02;;;;;;;;;;;;;;;-3.63;94.72;91159.53;1054742;56;20637;-82
2021/01/25 01:48:02;;;;;;;;;;;;;;;-3.54;94.20;91156.53;1058982;56;20580;-81
2021/01/25 01:49:03;;;;;;;;;;;;;;;-3.65;95.06;91159.16;1058954;56;20932;-81
2021/01/25 01:50:04;;;;;;;;;;;;;;;-3.67;94.86;91158.78;1054698;56;20183;-82
2021/01/25 01:51:04;;;;;;;;;;;;;;;-3.65;95.23;91155.81;1056559;56;20190;-82
2021/01/25 01:52:05;;;;;;;;;;;;;;;-3.73;95.37;91151.69;1060950;56;20178;-83
2021/01/25 01:53:06;;;;;;;;;;;;;;;-3.73;96.00;91156.91;1058815;56;20162;-83
2021/01/25 01:54:07;;;;;;;;;;;;;;;-3.70;96.12;91154.31;1061117;56;20170;-83
2021/01/25 01:55:08;;;;;;;;;;;;;;;-3.72;96.44;91161.03;1061092;56;21084;-82
2021/01/25 01:56:08;;;;;;;;;;;;;;;-3.71;95.98;91157.31;1058942;56;20170;-80
2021/01/25 01:57:08;;;;;;;;;;;;;;;-3.64;95.43;91158.06;1061086;56;22162;-83
2021/01/25 01:58:10;;;;;;;;;;;;;;;-3.71;94.99;91154.69;1061081;56;20181;-84
2021/01/25 01:59:10;;;;;;;;;;;;;;;-3.71;95.27;91152.09;1058202;56;20193;-83
2021/01/25 02:00:11;;;;;;;;;;;;;;;-3.67;95.32;91150.22;1058899;56;20165;-81
2021/01/25 02:01:11;;;;;;;;;;;;;;;-3.70;95.81;91156.94;1061153;56;20181;-82
2021/01/25 02:02:11;;;;;;;;;;;;;;;-3.72;95.45;91148.75;1058998;56;20265;-82
2021/01/25 02:03:12;;;;;;;;;;;;;;;-3.67;95.23;91152.84;1061221;56;20154;-82
2021/01/25 02:04:13;;;;;;;;;;;;;;;-3.67;95.12;91158.06;1061148;56;20566;-81
2021/01/25 02:05:14;;;;;;;;;;;;;;;-3.61;95.24;91148.72;1057252;56;20201;-82
2021/01/25 02:06:15;;;;;;;;;;;;;;;-3.65;95.47;91148.72;1056699;56;20644;-83
2021/01/25 02:07:16;;;;;;;;;;;;;;;-3.61;95.29;91151.31;1060953;56;20161;-82
2021/01/25 02:08:17;;;;;;;;;;;;;;;-3.64;95.53;91149.47;1061095;56;20146;-83
2021/01/25 02:09:18;;;;;;;;;;;;;;;-3.64;94.99;91146.88;1058817;56;20154;-84
2021/01/25 02:10:19;;;;;;;;;;;;;;;-3.60;94.91;91142.38;1059040;56;20158;-82
2021/01/25 02:11:19;;;;;;;;;;;;;;;-3.57;95.01;91157.28;1058704;56;20245;-81
2021/01/25 02:12:20;;;;;;;;;;;;;;;-3.63;94.81;91146.47;1056871;56;20585;-83
2021/01/25 02:13:21;;;;;;;;;;;;;;;-3.63;95.05;91151.72;1058913;56;20146;-82
2021/01/25 02:14:22;;;;;;;;;;;;;;;-3.67;95.32;91143.13;1061083;56;20264;-83
2021/01/25 02:15:22;;;;;;;;;;;;;;;-3.61;95.30;91149.44;1061108;56;20295;-82
2021/01/25 02:16:23;;;;;;;;;;;;;;;-3.53;94.67;91149.44;1061003;56;20623;-83
2021/01/25 02:17:23;;;;;;;;;;;;;;;-3.65;94.67;91151.31;1060909;56;20178;-82
2021/01/25 02:18:23;;;;;;;;;;;;;;;-3.64;95.79;91149.47;1063266;55;20173;-82
2021/01/25 02:19:41;;;;;;;;;;;;;;;-3.63;94.88;91145.75;1060944;56;20154;-80
2021/01/25 02:20:42;;;;;;;;;;;;;;;-3.64;95.09;91154.69;1057900;56;20612;-83
2021/01/25 02:21:50;;;;;;;;;;;;;;;-3.64;95.80;91155.44;1058774;56;20634;-83
2021/01/25 02:23:09;;;;;;;;;;;;;;;-3.73;95.39;91149.88;1061033;56;20162;-81
2021/01/25 02:24:09;;;;;;;;;;;;;;;-3.72;96.26;91148.75;1059164;56;20237;-83
2021/01/25 02:25:30;;;;;;;;;;;;;;;-3.74;95.75;91153.56;1058745;56;20175;-80
2021/01/25 02:26:49;;;;;;;;;;;;;;;-3.69;96.22;91155.06;1051410;56;20159;-81
2021/01/25 02:27:50;;;;;;;;;;;;;;;-3.74;95.95;91152.81;1057837;56;20159;-81
2021/01/25 02:28:50;;;;;;;;;;;;;;;-3.67;96.26;91148.34;1058749;56;20154;-81
2021/01/25 02:29:51;;;;;;;;;;;;;;;-3.68;96.60;91153.97;1061138;56;20701;-83
2021/01/25 02:30:52;;;;;;;;;;;;;;;-3.72;96.92;91148.75;1061012;56;20189;-83
2021/01/25 02:31:53;;;;;;;;;;;;;;;-3.69;96.37;91152.44;1060807;56;20170;-83
2021/01/25 02:32:53;;;;;;;;;;;;;;;-3.61;96.85;91146.84;1061143;56;20177;-82
2021/01/25 02:33:55;;;;;;;;;;;;;;;-3.61;96.17;91152.06;1060978;56;20576;-81
2021/01/25 02:34:56;;;;;;;;;;;;;;;-3.55;96.37;91142.75;1056670;56;20166;-83
2021/01/25 02:35:58;;;;;;;;;;;;;;;-3.62;95.57;91142.75;1056551;56;20163;-82
2021/01/25 02:36:59;;;;;;;;;;;;;;;-3.58;95.87;91140.12;1056168;56;20620;-82
2021/01/25 02:38:00;;;;;;;;;;;;;;;-3.60;96.55;91145.75;1056647;56;20200;-81
2021/01/25 02:39:01;;;;;;;;;;;;;;;-3.53;95.59;91141.63;1060636;56;20158;-82
2021/01/25 02:40:03;;;;;;;;;;;;;;;-3.55;95.80;91147.22;1059553;56;20155;-84
2021/01/25 02:41:04;;;;;;;;;;;;;;;-3.61;95.58;91148.72;1056429;56;20205;-82
2021/01/25 02:42:06;;;;;;;;;;;;;;;-3.64;96.45;91144.25;1056538;56;20189;-83
2021/01/25 02:43:07;;;;;;;;;;;;;;;-3.53;95.97;91141.63;1058741;56;20209;-81
2021/01/25 02:44:08;;;;;;;;;;;;;;;-3.56;96.24;91143.09;1057397;56;20162;-83
2021/01/25 02:45:09;;;;;;;;;;;;;;;-3.58;96.14;91146.09;1061119;56;20158;-82
2021/01/25 02:46:09;;;;;;;;;;;;;;;-3.55;96.48;91140.12;1058559;56;20147;-81
2021/01/25 02:47:11;;;;;;;;;;;;;;;-3.58;95.58;91145.34;1058333;56;20253;-82
2021/01/25 02:48:11;;;;;;;;;;;;;;;-3.60;96.56;91132.69;1056171;56;20159;-83
2021/01/25 02:49:12;;;;;;;;;;;;;;;-3.64;95.61;91142.38;1056702;56;20262;-83
2021/01/25 02:50:12;;;;;;;;;;;;;;;-3.56;95.97;91140.50;1054155;56;20633;-84
2021/01/25 02:51:13;;;;;;;;;;;;;;;-3.60;96.04;91137.91;1054007;56;20248;-82
2021/01/25 02:52:14;;;;;;;;;;;;;;;-3.62;96.17;91139.41;1056491;56;20186;-84
2021/01/25 02:53:14;;;;;;;;;;;;;;;-3.59;95.73;91138.66;1056530;56;20225;-82
2021/01/25 02:54:15;;;;;;;;;;;;;;;-3.65;96.15;91140.88;1054078;56;20167;-82
2021/01/25 02:55:15;;;;;;;;;;;;;;;-3.65;96.34;91145.34;1054075;56;20155;-82
2021/01/25 02:56:16;;;;;;;;;;;;;;;-3.60;96.23;91143.13;1058900;56;20217;-83
2021/01/25 02:57:17;;;;;;;;;;;;;;;-3.61;96.33;91146.09;1058119;56;20174;-82
2021/01/25 02:58:19;;;;;;;;;;;;;;;-3.57;95.56;91146.84;1054512;56;20147;-82
2021/01/25 02:59:19;;;;;;;;;;;;;;;-3.50;96.59;91140.88;1051808;56;20222;-82
2021/01/25 03:00:19;;;;;;;;;;;;;;;-3.57;95.25;91149.44;1052488;56;20660;-81
2021/01/25 03:01:20;;;;;;;;;;;;;;;-3.59;95.28;91149.84;1054398;56;20174;-83
2021/01/25 03:02:20;;;;;;;;;;;;;;;-3.59;95.11;91149.84;1056634;56;20322;-82
2021/01/25 03:03:22;;;;;;;;;;;;;;;-3.62;96.09;91149.84;1054419;56;20170;-81
2021/01/25 03:04:23;;;;;;;;;;;;;;;-3.58;95.79;91147.97;1056671;56;20660;-81
2021/01/25 03:05:23;;;;;;;;;;;;;;;-3.56;95.57;91150.94;1054419;56;20180;-82
2021/01/25 03:06:24;;;;;;;;;;;;;;;-3.47;95.89;91150.53;1054525;56;20589;-82
2021/01/25 03:07:24;;;;;;;;;;;;;;;-3.55;95.54;91153.19;1058928;56;20197;-82
2021/01/25 03:08:25;;;;;;;;;;;;;;;-3.50;95.78;91146.84;1056410;56;20182;-82
2021/01/25 03:09:25;;;;;;;;;;;;;;;-3.55;95.04;91152.44;1054482;56;20164;-81
2021/01/25 03:10:25;;;;;;;;;;;;;;;-3.46;95.71;91152.81;1054449;56;20163;-84
2021/01/25 03:11:26;;;;;;;;;;;;;;;-3.52;95.65;91143.09;1058755;56;20162;-80
2021/01/25 03:12:26;;;;;;;;;;;;;;;-3.61;95.97;91143.50;1056050;56;20186;-82
2021/01/25 03:13:27;;;;;;;;;;;;;;;-3.55;96.72;91150.56;1054293;56;20623;-82
2021/01/25 03:14:28;;;;;;;;;;;;;;;-3.44;96.38;91150.53;1054335;56;20250;-82
2021/01/25 03:15:29;;;;;;;;;;;;;;;-3.46;95.50;91154.66;1056239;56;20265;-81
2021/01/25 03:16:29;;;;;;;;;;;;;;;-3.45;95.22;91150.94;1054205;56;20159;-82
2021/01/25 03:17:29;;;;;;;;;;;;;;;-3.43;95.58;91148.69;1054024;56;20921;-83
2021/01/25 03:18:29;;;;;;;;;;;;;;;-3.51;95.75;91141.97;1056641;56;20190;-82
2021/01/25 03:19:30;;;;;;;;;;;;;;;-3.49;95.39;91140.50;1056587;56;20167;-83
2021/01/25 03:20:30;;;;;;;;;;;;;;;-3.58;95.97;91151.31;1058921;56;20170;-82
2021/01/25 03:21:34;;;;;;;;;;;;;;;-3.57;96.00;91146.84;1058799;56;20189;-81
2021/01/25 03:22:34;;;;;;;;;;;;;;;-3.56;96.39;91146.47;1056569;56;20263;-83
2021/01/25 03:23:38;;;;;;;;;;;;;;;-3.47;96.35;91151.28;1052436;56;20148;-82
2021/01/25 03:24:38;;;;;;;;;;;;;;;-3.49;95.67;91152.81;1056137;56;20159;-83
2021/01/25 03:25:38;;;;;;;;;;;;;;;-3.59;95.39;91159.53;1054422;56;20746;-83
2021/01/25 03:26:39;;;;;;;;;;;;;;;-3.62;96.26;91152.44;1054010;56;20636;-81
2021/01/25 03:27:39;;;;;;;;;;;;;;;-3.67;95.76;91150.97;1056390;56;20257;-83
2021/01/25 03:28:39;;;;;;;;;;;;;;;-3.68;95.68;91154.69;1056825;56;20198;-83
2021/01/25 03:29:40;;;;;;;;;;;;;;;-3.73;95.23;91149.09;1054442;56;20155;-83
2021/01/25 03:30:40;;;;;;;;;;;;;;;-3.76;95.18;91152.47;1054285;56;20190;-81
2021/01/25 03:31:40;;;;;;;;;;;;;;;-3.69;95.53;91155.06;1054270;56;20250;-81
2021/01/25 03:32:42;;;;;;;;;;;;;;;-3.71;95.77;91146.88;1056662;56;20180;-84
2021/01/25 03:33:42;;;;;;;;;;;;;;;-3.66;96.13;91146.47;1053860;56;20151;-81
2021/01/25 03:34:42;;;;;;;;;;;;;;;-3.70;95.12;91149.09;1052312;56;21173;-82
2021/01/25 03:35:43;;;;;;;;;;;;;;;-3.68;95.93;91144.25;1054464;56;20179;-80
2021/01/25 03:36:43;;;;;;;;;;;;;;;-3.65;95.13;91143.50;1058833;56;20186;-83
2021/01/25 03:37:43;;;;;;;;;;;;;;;-3.70;95.21;91141.25;1058637;56;20206;-81
2021/01/25 03:38:44;;;;;;;;;;;;;;;-3.80;95.68;91140.16;1056576;56;20147;-83
2021/01/25 03:39:44;;;;;;;;;;;;;;;-3.84;95.68;91130.84;1058685;56;20151;-81
2021/01/25 03:40:44;;;;;;;;;;;;;;;-3.72;95.43;91134.94;1058710;56;20151;-83
2021/01/25 03:41:45;;;;;;;;;;;;;;;-3.81;95.83;91141.28;1054542;56;20163;-83
2021/01/25 03:42:46;;;;;;;;;;;;;;;-3.84;95.27;91139.41;1056618;56;20166;-83
2021/01/25 03:43:46;;;;;;;;;;;;;;;-3.85;95.37;91142.41;1056591;56;20155;-83
2021/01/25 03:44:46;;;;;;;;;;;;;;;-3.85;96.36;91137.19;1056721;56;20162;-81
2021/01/25 03:45:46;;;;;;;;;;;;;;;-3.87;95.86;91145.37;1058811;56;20165;-82
2021/01/25 03:46:47;;;;;;;;;;;;;;;-3.88;95.12;91141.28;1054567;56;20305;-81
2021/01/25 03:47:47;;;;;;;;;;;;;;;-3.89;95.55;91141.66;1054507;56;20580;-81
2021/01/25 03:48:48;;;;;;;;;;;;;;;-3.98;94.93;91146.50;1056712;56;20170;-84
2021/01/25 03:49:48;;;;;;;;;;;;;;;-4.01;96.10;91148.00;1056555;56;20174;-81
2021/01/25 03:50:48;;;;;;;;;;;;;;;-3.92;95.74;91147.62;1057541;56;20158;-82
2021/01/25 03:51:48;;;;;;;;;;;;;;;-4.01;95.25;91148.00;1056839;56;20705;-82
2021/01/25 03:52:49;;;;;;;;;;;;;;;-4.02;95.08;91140.56;1059075;56;20155;-82
2021/01/25 03:53:49;;;;;;;;;;;;;;;-4.10;95.56;91153.59;1059086;56;20185;-82
2021/01/25 03:54:49;;;;;;;;;;;;;;;-4.10;95.58;91150.22;1058930;56;20194;-81
2021/01/25 03:55:50;;;;;;;;;;;;;;;-4.15;95.98;91161.03;1056805;56;20154;-81
2021/01/25 03:56:50;;;;;;;;;;;;;;;-4.17;95.84;91145.78;1056842;56;20193;-81
2021/01/25 03:57:51;;;;;;;;;;;;;;;-4.10;95.45;91155.44;1056992;56;20239;-81
2021/01/25 03:58:51;;;;;;;;;;;;;;;-4.11;95.48;91154.72;1058009;56;20151;-82
2021/01/25 03:59:51;;;;;;;;;;;;;;;-4.09;96.14;91156.94;1058539;56;21116;-83
2021/01/25 04:00:52;;;;;;;;;;;;;;;-4.11;96.23;91159.94;1061354;56;20240;-82
2021/01/25 04:01:52;;;;;;;;;;;;;;;-4.13;95.21;91162.16;1059022;56;20269;-83
2021/01/25 04:02:53;;;;;;;;;;;;;;;-4.15;95.26;91161.03;1056512;56;20151;-82
2021/01/25 04:03:53;;;;;;;;;;;;;;;-4.09;95.59;91165.50;1056555;56;20604;-82
2021/01/25 04:04:53;;;;;;;;;;;;;;;-4.13;95.04;91171.84;1056738;56;20179;-81
2021/01/25 04:05:53;;;;;;;;;;;;;;;-4.07;95.60;91163.28;1054524;56;20190;-81
2021/01/25 04:06:54;;;;;;;;;;;;;;;-4.09;95.95;91162.91;1054442;56;20296;-81
2021/01/25 04:07:54;;;;;;;;;;;;;;;-4.10;95.69;91171.09;1059108;56;20154;-82
2021/01/25 04:08:54;;;;;;;;;;;;;;;-4.13;95.77;91172.56;1058939;56;20147;-83
2021/01/25 04:09:55;;;;;;;;;;;;;;;-4.11;95.76;91177.44;1059065;56;20285;-82
2021/01/25 04:10:55;;;;;;;;;;;;;;;-4.18;95.98;91172.22;1063388;55;20219;-83
2021/01/25 04:11:55;;;;;;;;;;;;;;;-4.19;96.19;91178.53;1063728;55;20177;-82
2021/01/25 04:12:55;;;;;;;;;;;;;;;-4.20;96.07;91169.25;1061038;56;20271;-81
2021/01/25 04:13:56;;;;;;;;;;;;;;;-4.20;96.13;91177.81;1056908;56;20175;-81
2021/01/25 04:14:56;;;;;;;;;;;;;;;-4.22;96.13;91176.66;1059269;56;20201;-83
2021/01/25 04:15:56;;;;;;;;;;;;;;;-4.24;96.41;91178.91;1061181;56;20598;-84
2021/01/25 04:16:57;;;;;;;;;;;;;;;-4.19;96.55;91178.53;1059156;56;20190;-80
2021/01/25 04:17:57;;;;;;;;;;;;;;;-4.16;95.86;91180.41;1059308;56;20146;-82
2021/01/25 04:18:57;;;;;;;;;;;;;;;-4.11;96.62;91183.41;1059121;56;20158;-82
2021/01/25 04:19:58;;;;;;;;;;;;;;;-4.18;95.76;91178.16;1057056;56;20274;-84
2021/01/25 04:20:58;;;;;;;;;;;;;;;-4.24;96.20;91184.88;1059243;56;20658;-81
2021/01/25 04:21:58;;;;;;;;;;;;;;;-4.21;96.03;91183.41;1061007;56;20606;-82
2021/01/25 04:22:59;;;;;;;;;;;;;;;-4.12;96.89;91181.91;1058993;56;20711;-81
2021/01/25 04:23:59;;;;;;;;;;;;;;;-4.03;96.53;91183.41;1061329;56;20173;-81
2021/01/25 04:24:59;;;;;;;;;;;;;;;-4.10;96.04;91187.50;1061221;56;20158;-82
2021/01/25 04:26:00;;;;;;;;;;;;;;;-4.14;95.95;91188.63;1056814;56;20735;-83
2021/01/25 04:27:00;;;;;;;;;;;;;;;-4.13;96.63;91182.28;1056699;56;20178;-84
2021/01/25 04:28:00;;;;;;;;;;;;;;;-4.17;96.50;91189.34;1061302;56;20235;-82
2021/01/25 04:29:01;;;;;;;;;;;;;;;-4.15;96.91;91185.25;1061160;56;20265;-81
2021/01/25 04:30:04;;;;;;;;;;;;;;;-4.11;96.47;91188.63;1056802;56;20158;-81
2021/01/25 04:31:04;;;;;;;;;;;;;;;-4.08;96.77;91192.34;1058671;56;20173;-82
2021/01/25 04:32:05;;;;;;;;;;;;;;;-4.13;96.61;91190.09;1056887;56;20686;-83
2021/01/25 04:33:05;;;;;;;;;;;;;;;-4.09;96.71;91181.16;1061023;56;20205;-82
2021/01/25 04:34:06;;;;;;;;;;;;;;;-4.06;96.72;91187.50;1058970;56;20190;-83
2021/01/25 04:35:07;;;;;;;;;;;;;;;-3.99;96.87;91178.94;1054810;56;20178;-82
2021/01/25 04:36:08;;;;;;;;;;;;;;;-4.02;96.17;91182.28;1058467;56;20186;-81
2021/01/25 04:37:09;;;;;;;;;;;;;;;-4.06;96.72;91184.91;1060931;56;20267;-82
2021/01/25 04:38:09;;;;;;;;;;;;;;;-4.01;96.52;91183.78;1056926;56;20667;-81
2021/01/25 04:39:09;;;;;;;;;;;;;;;-4.01;96.81;91191.59;1057995;56;20174;-81
2021/01/25 04:40:11;;;;;;;;;;;;;;;-4.05;96.58;91192.34;1060900;56;20647;-83
2021/01/25 04:41:11;;;;;;;;;;;;;;;-3.95;96.93;91184.88;1056734;56;20166;-81
2021/01/25 04:42:12;;;;;;;;;;;;;;;-3.96;95.81;91183.41;1057922;56;20599;-80
2021/01/25 04:43:13;;;;;;;;;;;;;;;-3.97;96.61;91190.50;1059007;56;20155;-83
2021/01/25 04:44:14;;;;;;;;;;;;;;;-3.96;95.74;91186.00;1059006;56;20190;-82
2021/01/25 04:45:15;;;;;;;;;;;;;;;-3.97;96.65;91192.34;1060588;56;20145;-82
2021/01/25 04:46:16;;;;;;;;;;;;;;;-3.96;96.33;91186.75;1055683;56;20660;-82
2021/01/25 04:47:16;;;;;;;;;;;;;;;-3.94;96.71;91181.19;1056687;56;20183;-81
2021/01/25 04:48:17;;;;;;;;;;;;;;;-3.90;96.91;91187.16;1056750;56;20660;-83
2021/01/25 04:49:18;;;;;;;;;;;;;;;-3.90;96.03;91187.91;1056419;56;20163;-83
2021/01/25 04:50:18;;;;;;;;;;;;;;;-3.93;96.47;91182.66;1056705;56;20177;-81
2021/01/25 04:51:21;;;;;;;;;;;;;;;-3.92;96.84;91184.91;1058414;56;20242;-82
2021/01/25 04:52:22;;;;;;;;;;;;;;;-3.87;96.36;91187.12;1062919;55;20146;-80
2021/01/25 04:53:22;;;;;;;;;;;;;;;-3.88;95.94;91183.03;1061030;56;20256;-81
2021/01/25 04:54:22;;;;;;;;;;;;;;;-3.82;95.79;91183.41;1060656;56;20173;-81
2021/01/25 04:55:24;;;;;;;;;;;;;;;-3.92;95.67;91184.16;1063112;55;20173;-83
2021/01/25 04:56:25;;;;;;;;;;;;;;;-3.91;96.12;91185.62;1060973;56;20216;-84
2021/01/25 04:57:25;;;;;;;;;;;;;;;-3.92;96.35;91182.28;1061265;56;20158;-82
2021/01/25 04:58:25;;;;;;;;;;;;;;;-3.91;96.33;91188.25;1059095;56;20170;-83
2021/01/25 04:59:27;;;;;;;;;;;;;;;-3.84;96.16;91180.44;1056842;56;20171;-82
2021/01/25 05:00:27;;;;;;;;;;;;;;;-3.83;95.11;91182.66;1058708;56;20308;-81
2021/01/25 05:01:27;;;;;;;;;;;;;;;-3.91;95.94;91180.41;1058782;56;20166;-84
2021/01/25 05:02:28;;;;;;;;;;;;;;;-3.93;95.80;91193.84;1060380;56;20150;-81
2021/01/25 05:03:29;;;;;;;;;;;;;;;-3.93;95.05;91185.28;1058449;56;20155;-81
2021/01/25 05:04:29;;;;;;;;;;;;;;;-3.95;95.14;91177.06;1061163;56;20181;-83
2021/01/25 05:05:29;;;;;;;;;;;;;;;-3.90;95.42;91184.53;1058823;56;20150;-81
2021/01/25 05:06:30;;;;;;;;;;;;;;;-3.95;95.69;91187.50;1055585;56;20605;-84
2021/01/25 05:07:30;;;;;;;;;;;;;;;-3.96;95.31;91180.78;1061224;56;20196;-81
2021/01/25 05:08:30;;;;;;;;;;;;;;;-3.97;95.80;91187.88;1060981;56;20647;-81
2021/01/25 05:09:31;;;;;;;;;;;;;;;-3.94;94.78;91194.22;1056815;56;20163;-82
2021/01/25 05:10:32;;;;;;;;;;;;;;;-4.02;95.33;91190.13;1058547;56;20572;-82
2021/01/25 05:11:32;;;;;;;;;;;;;;;-3.96;95.07;91183.41;1061095;56;20177;-83
2021/01/25 05:12:48;;;;;;;;;;;;;;;-4.00;95.58;91188.63;1056925;56;20151;-81
2021/01/25 05:13:49;;;;;;;;;;;;;;;-3.98;94.69;91190.87;1055900;56;20151;-81
2021/01/25 05:14:49;;;;;;;;;;;;;;;-3.99;95.11;91192.00;1056511;56;20600;-81
2021/01/25 05:15:53;;;;;;;;;;;;;;;-4.03;95.42;91189.37;1058795;56;20692;-82
2021/01/25 05:16:53;;;;;;;;;;;;;;;-4.02;95.65;91187.50;1057142;56;20147;-84